sensor_id;sensor_type;location;lat;lon;timestamp;P1;durP1;ratioP1;P2;durP2;ratioP2
11709;SDS011;5911;51.036;6.972;2024-01-27T00:01:34;5.83;;;2.77;;
11709;SDS011;5911;51.036;6.972;2024-01-27T00:04:03;8.23;;;3.17;;
11709;SDS011;5911;51.036;6.972;2024-01-27T00:06:30;8.70;;;3.30;;
11709;SDS011;5911;51.036;6.972;2024-01-27T00:08:58;5.87;;;2.60;;
11709;SDS011;5911;51.036;6.972;2024-01-27T00:11:25;6.57;;;2.47;;
11709;SDS011;5911;51.036;6.972;2024-01-27T00:13:53;5.57;;;2.60;;
11709;SDS011;5911;51.036;6.972;2024-01-27T00:16:20;6.37;;;2.90;;
11709;SDS011;5911;51.036;6.972;2024-01-27T00:18:48;5.77;;;3.00;;
11709;SDS011;5911;51.036;6.972;2024-01-27T00:21:17;8.00;;;2.73;;
11709;SDS011;5911;51.036;6.972;2024-01-27T00:23:44;6.67;;;2.90;;
11709;SDS011;5911;51.036;6.972;2024-01-27T00:26:12;7.17;;;2.30;;
11709;SDS011;5911;51.036;6.972;2024-01-27T00:28:39;5.70;;;2.60;;
11709;SDS011;5911;51.036;6.972;2024-01-27T00:31:07;7.30;;;2.70;;
11709;SDS011;5911;51.036;6.972;2024-01-27T00:33:35;6.47;;;2.27;;
11709;SDS011;5911;51.036;6.972;2024-01-27T00:36:03;7.07;;;2.57;;
11709;SDS011;5911;51.036;6.972;2024-01-27T00:38:32;6.87;;;2.77;;
11709;SDS011;5911;51.036;6.972;2024-01-27T00:41:00;4.87;;;2.33;;
11709;SDS011;5911;51.036;6.972;2024-01-27T00:43:27;4.37;;;2.60;;
11709;SDS011;5911;51.036;6.972;2024-01-27T00:45:55;7.73;;;2.80;;
11709;SDS011;5911;51.036;6.972;2024-01-27T00:48:22;6.07;;;2.40;;
11709;SDS011;5911;51.036;6.972;2024-01-27T00:50:50;8.80;;;2.73;;
11709;SDS011;5911;51.036;6.972;2024-01-27T00:53:17;5.23;;;2.10;;
11709;SDS011;5911;51.036;6.972;2024-01-27T00:55:46;5.17;;;2.60;;
11709;SDS011;5911;51.036;6.972;2024-01-27T00:58:14;4.17;;;2.47;;
11709;SDS011;5911;51.036;6.972;2024-01-27T01:00:41;6.50;;;2.30;;
11709;SDS011;5911;51.036;6.972;2024-01-27T01:03:09;3.93;;;2.37;;
11709;SDS011;5911;51.036;6.972;2024-01-27T01:05:37;4.23;;;2.27;;
11709;SDS011;5911;51.036;6.972;2024-01-27T01:08:04;7.03;;;2.13;;
11709;SDS011;5911;51.036;6.972;2024-01-27T01:10:32;5.53;;;2.37;;
11709;SDS011;5911;51.036;6.972;2024-01-27T01:13:01;4.93;;;2.40;;
11709;SDS011;5911;51.036;6.972;2024-01-27T01:15:30;6.60;;;2.30;;
11709;SDS011;5911;51.036;6.972;2024-01-27T01:17:58;6.17;;;2.40;;
11709;SDS011;5911;51.036;6.972;2024-01-27T01:20:25;6.87;;;2.53;;
11709;SDS011;5911;51.036;6.972;2024-01-27T01:22:53;4.63;;;2.20;;
11709;SDS011;5911;51.036;6.972;2024-01-27T01:25:20;6.23;;;2.30;;
11709;SDS011;5911;51.036;6.972;2024-01-27T01:27:48;6.93;;;2.20;;
11709;SDS011;5911;51.036;6.972;2024-01-27T01:30:18;4.10;;;2.50;;
11709;SDS011;5911;51.036;6.972;2024-01-27T01:32:45;6.43;;;2.50;;
11709;SDS011;5911;51.036;6.972;2024-01-27T01:35:13;7.50;;;3.00;;
11709;SDS011;5911;51.036;6.972;2024-01-27T01:37:40;6.40;;;2.97;;
11709;SDS011;5911;51.036;6.972;2024-01-27T01:40:08;5.83;;;2.60;;
11709;SDS011;5911;51.036;6.972;2024-01-27T01:42:36;6.30;;;3.13;;
11709;SDS011;5911;51.036;6.972;2024-01-27T01:45:03;8.10;;;2.50;;
11709;SDS011;5911;51.036;6.972;2024-01-27T01:47:34;6.50;;;2.70;;
11709;SDS011;5911;51.036;6.972;2024-01-27T01:50:01;5.63;;;2.57;;
11709;SDS011;5911;51.036;6.972;2024-01-27T01:52:29;5.20;;;2.30;;
11709;SDS011;5911;51.036;6.972;2024-01-27T01:54:56;5.43;;;2.63;;
11709;SDS011;5911;51.036;6.972;2024-01-27T01:57:24;5.23;;;3.53;;
11709;SDS011;5911;51.036;6.972;2024-01-27T01:59:51;7.87;;;2.97;;
11709;SDS011;5911;51.036;6.972;2024-01-27T02:02:19;10.10;;;2.77;;
11709;SDS011;5911;51.036;6.972;2024-01-27T02:04:48;8.00;;;3.23;;
11709;SDS011;5911;51.036;6.972;2024-01-27T02:07:16;4.50;;;2.80;;
11709;SDS011;5911;51.036;6.972;2024-01-27T02:09:44;8.47;;;3.20;;
11709;SDS011;5911;51.036;6.972;2024-01-27T02:12:11;5.23;;;2.73;;
11709;SDS011;5911;51.036;6.972;2024-01-27T02:14:39;7.83;;;3.37;;
11709;SDS011;5911;51.036;6.972;2024-01-27T02:17:06;4.93;;;3.07;;
11709;SDS011;5911;51.036;6.972;2024-01-27T02:19:34;6.00;;;2.97;;
11709;SDS011;5911;51.036;6.972;2024-01-27T02:22:03;5.80;;;3.00;;
11709;SDS011;5911;51.036;6.972;2024-01-27T02:24:32;8.17;;;2.90;;
11709;SDS011;5911;51.036;6.972;2024-01-27T02:27:00;6.13;;;2.73;;
11709;SDS011;5911;51.036;6.972;2024-01-27T02:29:27;6.10;;;2.40;;
11709;SDS011;5911;51.036;6.972;2024-01-27T02:31:54;5.87;;;3.20;;
11709;SDS011;5911;51.036;6.972;2024-01-27T02:34:22;4.83;;;2.90;;
11709;SDS011;5911;51.036;6.972;2024-01-27T02:36:50;6.87;;;2.77;;
11709;SDS011;5911;51.036;6.972;2024-01-27T02:39:17;7.00;;;2.67;;
11709;SDS011;5911;51.036;6.972;2024-01-27T02:41:46;6.27;;;2.63;;
11709;SDS011;5911;51.036;6.972;2024-01-27T02:44:14;6.33;;;2.80;;
11709;SDS011;5911;51.036;6.972;2024-01-27T02:46:41;6.23;;;2.90;;
11709;SDS011;5911;51.036;6.972;2024-01-27T02:49:10;7.30;;;3.03;;
11709;SDS011;5911;51.036;6.972;2024-01-27T02:51:38;8.93;;;3.33;;
11709;SDS011;5911;51.036;6.972;2024-01-27T02:54:05;4.37;;;3.07;;
11709;SDS011;5911;51.036;6.972;2024-01-27T02:56:33;4.67;;;2.80;;
11709;SDS011;5911;51.036;6.972;2024-01-27T02:59:01;9.30;;;3.20;;
11709;SDS011;5911;51.036;6.972;2024-01-27T03:01:29;6.20;;;2.93;;
11709;SDS011;5911;51.036;6.972;2024-01-27T03:03:57;10.17;;;3.43;;
11709;SDS011;5911;51.036;6.972;2024-01-27T03:06:24;6.13;;;3.03;;
11709;SDS011;5911;51.036;6.972;2024-01-27T03:08:52;6.70;;;3.10;;
11709;SDS011;5911;51.036;6.972;2024-01-27T03:11:19;6.30;;;2.97;;
11709;SDS011;5911;51.036;6.972;2024-01-27T03:13:47;8.73;;;2.90;;
11709;SDS011;5911;51.036;6.972;2024-01-27T03:16:16;7.53;;;3.10;;
11709;SDS011;5911;51.036;6.972;2024-01-27T03:18:46;5.13;;;2.80;;
11709;SDS011;5911;51.036;6.972;2024-01-27T03:21:14;7.43;;;3.07;;
11709;SDS011;5911;51.036;6.972;2024-01-27T03:23:41;5.50;;;2.77;;
11709;SDS011;5911;51.036;6.972;2024-01-27T03:26:09;5.17;;;2.97;;
11709;SDS011;5911;51.036;6.972;2024-01-27T03:28:37;5.53;;;2.77;;
11709;SDS011;5911;51.036;6.972;2024-01-27T03:31:04;5.03;;;3.00;;
11709;SDS011;5911;51.036;6.972;2024-01-27T03:33:33;6.33;;;2.73;;
11709;SDS011;5911;51.036;6.972;2024-01-27T03:36:00;4.83;;;2.50;;
11709;SDS011;5911;51.036;6.972;2024-01-27T03:38:29;6.97;;;3.13;;
11709;SDS011;5911;51.036;6.972;2024-01-27T03:40:56;4.47;;;3.20;;
11709;SDS011;5911;51.036;6.972;2024-01-27T03:43:25;6.53;;;3.00;;
11709;SDS011;5911;51.036;6.972;2024-01-27T03:45:53;7.37;;;3.20;;
11709;SDS011;5911;51.036;6.972;2024-01-27T03:48:20;7.03;;;2.53;;
11709;SDS011;5911;51.036;6.972;2024-01-27T03:50:49;6.00;;;3.20;;
11709;SDS011;5911;51.036;6.972;2024-01-27T03:53:17;7.53;;;3.53;;
11709;SDS011;5911;51.036;6.972;2024-01-27T03:55:44;7.03;;;3.20;;
11709;SDS011;5911;51.036;6.972;2024-01-27T03:58:12;6.40;;;2.90;;
11709;SDS011;5911;51.036;6.972;2024-01-27T04:00:39;4.57;;;2.90;;
11709;SDS011;5911;51.036;6.972;2024-01-27T04:03:11;7.80;;;3.40;;
11709;SDS011;5911;51.036;6.972;2024-01-27T04:05:38;7.17;;;3.07;;
11709;SDS011;5911;51.036;6.972;2024-01-27T04:08:07;6.70;;;3.10;;
11709;SDS011;5911;51.036;6.972;2024-01-27T04:10:36;6.83;;;3.50;;
11709;SDS011;5911;51.036;6.972;2024-01-27T04:13:03;10.63;;;3.33;;
11709;SDS011;5911;51.036;6.972;2024-01-27T04:15:32;6.80;;;3.20;;
11709;SDS011;5911;51.036;6.972;2024-01-27T04:18:04;7.43;;;3.37;;
11709;SDS011;5911;51.036;6.972;2024-01-27T04:20:33;6.83;;;3.60;;
11709;SDS011;5911;51.036;6.972;2024-01-27T04:23:01;8.97;;;3.80;;
11709;SDS011;5911;51.036;6.972;2024-01-27T04:25:30;8.17;;;3.60;;
11709;SDS011;5911;51.036;6.972;2024-01-27T04:27:57;4.80;;;2.97;;
11709;SDS011;5911;51.036;6.972;2024-01-27T04:30:25;6.30;;;3.10;;
11709;SDS011;5911;51.036;6.972;2024-01-27T04:32:52;6.10;;;3.10;;
11709;SDS011;5911;51.036;6.972;2024-01-27T04:35:20;8.07;;;3.80;;
11709;SDS011;5911;51.036;6.972;2024-01-27T04:37:47;6.93;;;3.27;;
11709;SDS011;5911;51.036;6.972;2024-01-27T04:40:14;6.30;;;3.00;;
11709;SDS011;5911;51.036;6.972;2024-01-27T04:42:43;7.93;;;3.70;;
11709;SDS011;5911;51.036;6.972;2024-01-27T04:45:14;9.27;;;3.67;;
11709;SDS011;5911;51.036;6.972;2024-01-27T04:47:41;6.23;;;3.50;;
11709;SDS011;5911;51.036;6.972;2024-01-27T04:50:09;6.77;;;3.77;;
11709;SDS011;5911;51.036;6.972;2024-01-27T04:52:36;12.03;;;3.77;;
11709;SDS011;5911;51.036;6.972;2024-01-27T04:55:04;7.60;;;3.83;;
11709;SDS011;5911;51.036;6.972;2024-01-27T04:57:32;8.57;;;4.20;;
11709;SDS011;5911;51.036;6.972;2024-01-27T05:00:01;10.90;;;4.20;;
11709;SDS011;5911;51.036;6.972;2024-01-27T05:02:29;8.10;;;3.87;;
11709;SDS011;5911;51.036;6.972;2024-01-27T05:04:56;13.83;;;4.97;;
11709;SDS011;5911;51.036;6.972;2024-01-27T05:07:24;11.80;;;4.60;;
11709;SDS011;5911;51.036;6.972;2024-01-27T05:09:51;12.03;;;4.33;;
11709;SDS011;5911;51.036;6.972;2024-01-27T05:12:19;14.47;;;5.13;;
11709;SDS011;5911;51.036;6.972;2024-01-27T05:14:46;7.73;;;4.53;;
11709;SDS011;5911;51.036;6.972;2024-01-27T05:17:15;9.00;;;4.00;;
11709;SDS011;5911;51.036;6.972;2024-01-27T05:19:43;9.77;;;3.93;;
11709;SDS011;5911;51.036;6.972;2024-01-27T05:22:11;10.70;;;3.67;;
11709;SDS011;5911;51.036;6.972;2024-01-27T05:24:38;6.33;;;3.57;;
11709;SDS011;5911;51.036;6.972;2024-01-27T05:27:06;6.40;;;3.03;;
11709;SDS011;5911;51.036;6.972;2024-01-27T05:29:33;9.83;;;3.60;;
11709;SDS011;5911;51.036;6.972;2024-01-27T05:32:01;6.03;;;3.53;;
11709;SDS011;5911;51.036;6.972;2024-01-27T05:34:30;8.30;;;3.67;;
11709;SDS011;5911;51.036;6.972;2024-01-27T05:36:58;7.33;;;3.60;;
11709;SDS011;5911;51.036;6.972;2024-01-27T05:39:25;9.53;;;4.17;;
11709;SDS011;5911;51.036;6.972;2024-01-27T05:41:53;8.83;;;3.60;;
11709;SDS011;5911;51.036;6.972;2024-01-27T05:44:20;7.40;;;3.90;;
11709;SDS011;5911;51.036;6.972;2024-01-27T05:46:48;7.40;;;3.70;;
11709;SDS011;5911;51.036;6.972;2024-01-27T05:49:15;6.70;;;3.63;;
11709;SDS011;5911;51.036;6.972;2024-01-27T05:51:44;7.43;;;3.90;;
11709;SDS011;5911;51.036;6.972;2024-01-27T05:54:12;9.50;;;4.00;;
11709;SDS011;5911;51.036;6.972;2024-01-27T05:56:42;8.97;;;4.50;;
11709;SDS011;5911;51.036;6.972;2024-01-27T05:59:10;8.73;;;4.03;;
11709;SDS011;5911;51.036;6.972;2024-01-27T06:01:37;9.00;;;4.47;;
11709;SDS011;5911;51.036;6.972;2024-01-27T06:04:07;8.97;;;3.87;;
11709;SDS011;5911;51.036;6.972;2024-01-27T06:06:37;6.97;;;4.37;;
11709;SDS011;5911;51.036;6.972;2024-01-27T06:09:06;9.20;;;4.10;;
11709;SDS011;5911;51.036;6.972;2024-01-27T06:11:37;10.47;;;4.07;;
11709;SDS011;5911;51.036;6.972;2024-01-27T06:14:05;9.70;;;4.27;;
11709;SDS011;5911;51.036;6.972;2024-01-27T06:16:32;7.00;;;3.30;;
11709;SDS011;5911;51.036;6.972;2024-01-27T06:19:01;9.17;;;3.87;;
11709;SDS011;5911;51.036;6.972;2024-01-27T06:21:29;8.13;;;3.20;;
11709;SDS011;5911;51.036;6.972;2024-01-27T06:23:58;5.33;;;3.40;;
11709;SDS011;5911;51.036;6.972;2024-01-27T06:26:27;5.77;;;3.33;;
11709;SDS011;5911;51.036;6.972;2024-01-27T06:28:56;8.07;;;3.20;;
11709;SDS011;5911;51.036;6.972;2024-01-27T06:31:24;7.87;;;3.03;;
11709;SDS011;5911;51.036;6.972;2024-01-27T06:33:51;5.87;;;3.13;;
11709;SDS011;5911;51.036;6.972;2024-01-27T06:36:19;5.77;;;2.90;;
11709;SDS011;5911;51.036;6.972;2024-01-27T06:38:49;8.37;;;3.50;;
11709;SDS011;5911;51.036;6.972;2024-01-27T06:41:16;6.93;;;2.80;;
11709;SDS011;5911;51.036;6.972;2024-01-27T06:43:46;7.43;;;3.10;;
11709;SDS011;5911;51.036;6.972;2024-01-27T06:46:13;6.17;;;3.13;;
11709;SDS011;5911;51.036;6.972;2024-01-27T06:48:41;7.10;;;3.80;;
11709;SDS011;5911;51.036;6.972;2024-01-27T06:51:08;7.90;;;3.73;;
11709;SDS011;5911;51.036;6.972;2024-01-27T06:53:36;11.50;;;4.00;;
11709;SDS011;5911;51.036;6.972;2024-01-27T06:56:04;7.70;;;3.90;;
11709;SDS011;5911;51.036;6.972;2024-01-27T06:58:32;8.53;;;4.03;;
11709;SDS011;5911;51.036;6.972;2024-01-27T07:01:01;7.77;;;4.23;;
11709;SDS011;5911;51.036;6.972;2024-01-27T07:03:29;7.73;;;3.67;;
11709;SDS011;5911;51.036;6.972;2024-01-27T07:05:57;7.53;;;3.40;;
11709;SDS011;5911;51.036;6.972;2024-01-27T07:08:30;9.90;;;4.13;;
11709;SDS011;5911;51.036;6.972;2024-01-27T07:11:03;7.53;;;3.73;;
11709;SDS011;5911;51.036;6.972;2024-01-27T07:13:30;11.40;;;4.23;;
11709;SDS011;5911;51.036;6.972;2024-01-27T07:15:58;8.67;;;4.70;;
11709;SDS011;5911;51.036;6.972;2024-01-27T07:18:27;9.03;;;4.80;;
11709;SDS011;5911;51.036;6.972;2024-01-27T07:20:55;9.83;;;4.40;;
11709;SDS011;5911;51.036;6.972;2024-01-27T07:23:25;9.43;;;4.90;;
11709;SDS011;5911;51.036;6.972;2024-01-27T07:25:53;12.93;;;4.73;;
11709;SDS011;5911;51.036;6.972;2024-01-27T07:28:20;10.27;;;4.67;;
11709;SDS011;5911;51.036;6.972;2024-01-27T07:30:48;8.43;;;4.50;;
11709;SDS011;5911;51.036;6.972;2024-01-27T07:33:15;10.07;;;4.47;;
11709;SDS011;5911;51.036;6.972;2024-01-27T07:35:44;9.97;;;4.47;;
11709;SDS011;5911;51.036;6.972;2024-01-27T07:38:12;9.00;;;4.60;;
11709;SDS011;5911;51.036;6.972;2024-01-27T07:40:40;12.47;;;4.90;;
11709;SDS011;5911;51.036;6.972;2024-01-27T07:43:07;12.77;;;5.20;;
11709;SDS011;5911;51.036;6.972;2024-01-27T07:45:35;10.03;;;5.17;;
11709;SDS011;5911;51.036;6.972;2024-01-27T07:48:02;11.97;;;5.10;;
11709;SDS011;5911;51.036;6.972;2024-01-27T07:50:30;11.53;;;4.40;;
11709;SDS011;5911;51.036;6.972;2024-01-27T07:52:59;9.70;;;3.87;;
11709;SDS011;5911;51.036;6.972;2024-01-27T07:55:27;5.83;;;3.10;;
11709;SDS011;5911;51.036;6.972;2024-01-27T07:57:54;8.67;;;3.70;;
11709;SDS011;5911;51.036;6.972;2024-01-27T08:00:22;6.57;;;2.90;;
11709;SDS011;5911;51.036;6.972;2024-01-27T08:02:49;5.53;;;3.10;;
11709;SDS011;5911;51.036;6.972;2024-01-27T08:05:17;9.07;;;4.00;;
11709;SDS011;5911;51.036;6.972;2024-01-27T08:07:47;8.43;;;4.47;;
11709;SDS011;5911;51.036;6.972;2024-01-27T08:10:17;9.87;;;4.67;;
11709;SDS011;5911;51.036;6.972;2024-01-27T08:12:45;7.47;;;4.27;;
11709;SDS011;5911;51.036;6.972;2024-01-27T08:15:12;8.47;;;4.57;;
11709;SDS011;5911;51.036;6.972;2024-01-27T08:17:40;10.30;;;4.27;;
11709;SDS011;5911;51.036;6.972;2024-01-27T08:20:08;8.43;;;3.77;;
11709;SDS011;5911;51.036;6.972;2024-01-27T08:22:35;9.27;;;4.20;;
11709;SDS011;5911;51.036;6.972;2024-01-27T08:25:03;9.17;;;4.23;;
11709;SDS011;5911;51.036;6.972;2024-01-27T08:27:32;8.37;;;3.67;;
11709;SDS011;5911;51.036;6.972;2024-01-27T08:30:00;9.10;;;4.17;;
11709;SDS011;5911;51.036;6.972;2024-01-27T08:32:27;11.33;;;4.40;;
11709;SDS011;5911;51.036;6.972;2024-01-27T08:34:55;10.97;;;3.73;;
11709;SDS011;5911;51.036;6.972;2024-01-27T08:37:23;7.13;;;3.03;;
11709;SDS011;5911;51.036;6.972;2024-01-27T08:39:50;6.05;;;2.80;;
11709;SDS011;5911;51.036;6.972;2024-01-27T08:42:18;5.17;;;2.70;;
11709;SDS011;5911;51.036;6.972;2024-01-27T08:44:47;5.33;;;2.50;;
11709;SDS011;5911;51.036;6.972;2024-01-27T08:47:14;6.30;;;3.20;;
11709;SDS011;5911;51.036;6.972;2024-01-27T08:49:45;9.73;;;3.30;;
11709;SDS011;5911;51.036;6.972;2024-01-27T08:52:12;6.90;;;2.97;;
11709;SDS011;5911;51.036;6.972;2024-01-27T08:54:41;7.00;;;3.23;;
11709;SDS011;5911;51.036;6.972;2024-01-27T08:57:09;6.17;;;3.17;;
11709;SDS011;5911;51.036;6.972;2024-01-27T08:59:37;8.60;;;3.37;;
11709;SDS011;5911;51.036;6.972;2024-01-27T09:02:06;6.37;;;3.40;;
11709;SDS011;5911;51.036;6.972;2024-01-27T09:04:33;10.03;;;3.53;;
11709;SDS011;5911;51.036;6.972;2024-01-27T09:07:03;9.80;;;3.80;;
11709;SDS011;5911;51.036;6.972;2024-01-27T09:09:30;11.93;;;4.57;;
11709;SDS011;5911;51.036;6.972;2024-01-27T09:11:58;10.77;;;4.77;;
11709;SDS011;5911;51.036;6.972;2024-01-27T09:14:25;11.17;;;5.50;;
11709;SDS011;5911;51.036;6.972;2024-01-27T09:16:53;12.27;;;5.37;;
11709;SDS011;5911;51.036;6.972;2024-01-27T09:19:22;11.00;;;5.37;;
11709;SDS011;5911;51.036;6.972;2024-01-27T09:21:49;9.57;;;4.87;;
11709;SDS011;5911;51.036;6.972;2024-01-27T09:24:17;10.07;;;4.50;;
11709;SDS011;5911;51.036;6.972;2024-01-27T09:26:44;11.97;;;4.77;;
11709;SDS011;5911;51.036;6.972;2024-01-27T09:29:12;9.97;;;4.03;;
11709;SDS011;5911;51.036;6.972;2024-01-27T09:31:40;7.73;;;4.40;;
11709;SDS011;5911;51.036;6.972;2024-01-27T09:34:07;7.23;;;4.30;;
11709;SDS011;5911;51.036;6.972;2024-01-27T09:36:36;8.97;;;4.50;;
11709;SDS011;5911;51.036;6.972;2024-01-27T09:39:04;11.20;;;5.27;;
11709;SDS011;5911;51.036;6.972;2024-01-27T09:41:32;10.93;;;4.77;;
11709;SDS011;5911;51.036;6.972;2024-01-27T09:44:00;11.47;;;5.20;;
11709;SDS011;5911;51.036;6.972;2024-01-27T09:46:28;16.67;;;5.13;;
11709;SDS011;5911;51.036;6.972;2024-01-27T09:48:56;13.27;;;5.77;;
11709;SDS011;5911;51.036;6.972;2024-01-27T09:51:24;10.13;;;5.00;;
11709;SDS011;5911;51.036;6.972;2024-01-27T09:53:53;11.50;;;4.63;;
11709;SDS011;5911;51.036;6.972;2024-01-27T09:56:20;10.77;;;4.43;;
11709;SDS011;5911;51.036;6.972;2024-01-27T09:58:49;10.60;;;5.53;;
11709;SDS011;5911;51.036;6.972;2024-01-27T10:01:17;11.10;;;5.17;;
11709;SDS011;5911;51.036;6.972;2024-01-27T10:03:46;12.87;;;6.30;;
11709;SDS011;5911;51.036;6.972;2024-01-27T10:06:14;13.80;;;5.93;;
11709;SDS011;5911;51.036;6.972;2024-01-27T10:08:41;10.13;;;5.80;;
11709;SDS011;5911;51.036;6.972;2024-01-27T10:11:11;13.07;;;5.60;;
11709;SDS011;5911;51.036;6.972;2024-01-27T10:13:41;12.20;;;5.60;;
11709;SDS011;5911;51.036;6.972;2024-01-27T10:16:08;10.83;;;5.10;;
11709;SDS011;5911;51.036;6.972;2024-01-27T10:18:36;9.83;;;4.70;;
11709;SDS011;5911;51.036;6.972;2024-01-27T10:21:12;11.13;;;5.03;;
11709;SDS011;5911;51.036;6.972;2024-01-27T10:23:39;15.33;;;5.07;;
11709;SDS011;5911;51.036;6.972;2024-01-27T10:26:08;11.57;;;4.63;;
11709;SDS011;5911;51.036;6.972;2024-01-27T10:28:37;13.17;;;5.33;;
11709;SDS011;5911;51.036;6.972;2024-01-27T10:31:08;10.13;;;4.67;;
11709;SDS011;5911;51.036;6.972;2024-01-27T10:33:36;11.83;;;5.77;;
11709;SDS011;5911;51.036;6.972;2024-01-27T10:36:04;10.00;;;4.40;;
11709;SDS011;5911;51.036;6.972;2024-01-27T10:38:35;10.60;;;4.40;;
11709;SDS011;5911;51.036;6.972;2024-01-27T10:41:02;8.83;;;4.10;;
11709;SDS011;5911;51.036;6.972;2024-01-27T10:43:31;10.23;;;4.20;;
11709;SDS011;5911;51.036;6.972;2024-01-27T10:46:03;8.23;;;3.97;;
11709;SDS011;5911;51.036;6.972;2024-01-27T10:48:32;9.60;;;5.00;;
11709;SDS011;5911;51.036;6.972;2024-01-27T10:51:03;11.53;;;5.13;;
11709;SDS011;5911;51.036;6.972;2024-01-27T10:53:33;9.23;;;4.37;;
11709;SDS011;5911;51.036;6.972;2024-01-27T10:56:01;8.83;;;4.37;;
11709;SDS011;5911;51.036;6.972;2024-01-27T10:58:34;9.17;;;4.03;;
11709;SDS011;5911;51.036;6.972;2024-01-27T11:01:09;9.17;;;3.93;;
11709;SDS011;5911;51.036;6.972;2024-01-27T11:03:38;11.07;;;4.77;;
11709;SDS011;5911;51.036;6.972;2024-01-27T11:06:06;12.03;;;5.50;;
11709;SDS011;5911;51.036;6.972;2024-01-27T11:08:34;9.83;;;4.87;;
11709;SDS011;5911;51.036;6.972;2024-01-27T11:11:05;12.13;;;3.87;;
11709;SDS011;5911;51.036;6.972;2024-01-27T11:13:33;11.67;;;3.97;;
11709;SDS011;5911;51.036;6.972;2024-01-27T11:16:00;10.50;;;4.07;;
11709;SDS011;5911;51.036;6.972;2024-01-27T11:18:29;8.73;;;3.80;;
11709;SDS011;5911;51.036;6.972;2024-01-27T11:20:57;9.17;;;3.20;;
11709;SDS011;5911;51.036;6.972;2024-01-27T11:23:31;9.13;;;3.83;;
11709;SDS011;5911;51.036;6.972;2024-01-27T11:26:02;7.83;;;3.27;;
11709;SDS011;5911;51.036;6.972;2024-01-27T11:28:29;7.70;;;3.57;;
11709;SDS011;5911;51.036;6.972;2024-01-27T11:30:57;11.53;;;4.00;;
11709;SDS011;5911;51.036;6.972;2024-01-27T11:33:24;9.00;;;3.70;;
11709;SDS011;5911;51.036;6.972;2024-01-27T11:36:00;7.67;;;3.43;;
11709;SDS011;5911;51.036;6.972;2024-01-27T11:38:30;8.67;;;4.20;;
11709;SDS011;5911;51.036;6.972;2024-01-27T11:40:57;10.93;;;4.43;;
11709;SDS011;5911;51.036;6.972;2024-01-27T11:43:25;9.50;;;4.33;;
11709;SDS011;5911;51.036;6.972;2024-01-27T11:45:56;10.97;;;4.60;;
11709;SDS011;5911;51.036;6.972;2024-01-27T11:48:24;8.70;;;4.00;;
11709;SDS011;5911;51.036;6.972;2024-01-27T11:51:05;11.67;;;5.40;;
11709;SDS011;5911;51.036;6.972;2024-01-27T11:53:32;9.57;;;4.03;;
11709;SDS011;5911;51.036;6.972;2024-01-27T11:56:00;9.73;;;3.70;;
11709;SDS011;5911;51.036;6.972;2024-01-27T11:58:28;7.87;;;3.77;;
11709;SDS011;5911;51.036;6.972;2024-01-27T12:00:56;10.37;;;3.53;;
11709;SDS011;5911;51.036;6.972;2024-01-27T12:03:24;9.77;;;4.10;;
11709;SDS011;5911;51.036;6.972;2024-01-27T12:05:52;10.33;;;3.60;;
11709;SDS011;5911;51.036;6.972;2024-01-27T12:08:21;7.90;;;3.53;;
11709;SDS011;5911;51.036;6.972;2024-01-27T12:10:49;6.97;;;3.90;;
11709;SDS011;5911;51.036;6.972;2024-01-27T12:13:16;8.77;;;4.00;;
11709;SDS011;5911;51.036;6.972;2024-01-27T12:15:44;10.80;;;4.03;;
11709;SDS011;5911;51.036;6.972;2024-01-27T12:18:11;9.20;;;3.70;;
11709;SDS011;5911;51.036;6.972;2024-01-27T12:20:39;8.63;;;3.57;;
11709;SDS011;5911;51.036;6.972;2024-01-27T12:23:07;7.63;;;3.33;;
11709;SDS011;5911;51.036;6.972;2024-01-27T12:25:36;10.57;;;4.20;;
11709;SDS011;5911;51.036;6.972;2024-01-27T12:28:04;6.90;;;3.83;;
11709;SDS011;5911;51.036;6.972;2024-01-27T12:30:34;9.33;;;3.80;;
11709;SDS011;5911;51.036;6.972;2024-01-27T12:33:01;11.77;;;3.50;;
11709;SDS011;5911;51.036;6.972;2024-01-27T12:35:36;6.70;;;3.10;;
11709;SDS011;5911;51.036;6.972;2024-01-27T12:38:05;7.20;;;3.30;;
11709;SDS011;5911;51.036;6.972;2024-01-27T12:40:32;10.37;;;4.17;;
11709;SDS011;5911;51.036;6.972;2024-01-27T12:43:01;9.60;;;4.03;;
11709;SDS011;5911;51.036;6.972;2024-01-27T12:45:28;9.57;;;4.57;;
11709;SDS011;5911;51.036;6.972;2024-01-27T12:47:56;10.17;;;3.67;;
11709;SDS011;5911;51.036;6.972;2024-01-27T12:50:26;9.80;;;3.80;;
11709;SDS011;5911;51.036;6.972;2024-01-27T12:52:53;11.40;;;3.92;;
11709;SDS011;5911;51.036;6.972;2024-01-27T12:55:21;8.27;;;3.43;;
11709;SDS011;5911;51.036;6.972;2024-01-27T12:57:49;6.97;;;3.50;;
11709;SDS011;5911;51.036;6.972;2024-01-27T13:00:18;11.43;;;3.35;;
11709;SDS011;5911;51.036;6.972;2024-01-27T13:02:45;8.50;;;3.27;;
11709;SDS011;5911;51.036;6.972;2024-01-27T13:05:13;7.77;;;3.60;;
11709;SDS011;5911;51.036;6.972;2024-01-27T13:07:41;6.90;;;3.70;;
11709;SDS011;5911;51.036;6.972;2024-01-27T13:10:11;9.07;;;3.67;;
11709;SDS011;5911;51.036;6.972;2024-01-27T13:12:38;7.57;;;2.97;;
11709;SDS011;5911;51.036;6.972;2024-01-27T13:15:06;6.70;;;3.40;;
11709;SDS011;5911;51.036;6.972;2024-01-27T13:17:35;8.03;;;3.67;;
11709;SDS011;5911;51.036;6.972;2024-01-27T13:20:03;6.05;;;3.15;;
11709;SDS011;5911;51.036;6.972;2024-01-27T13:22:32;10.30;;;3.57;;
11709;SDS011;5911;51.036;6.972;2024-01-27T13:24:59;9.50;;;3.37;;
11709;SDS011;5911;51.036;6.972;2024-01-27T13:27:31;5.72;;;3.22;;
11709;SDS011;5911;51.036;6.972;2024-01-27T13:30:00;5.80;;;2.90;;
11709;SDS011;5911;51.036;6.972;2024-01-27T13:32:28;7.40;;;3.00;;
11709;SDS011;5911;51.036;6.972;2024-01-27T13:34:56;9.50;;;3.33;;
11709;SDS011;5911;51.036;6.972;2024-01-27T13:37:24;5.53;;;2.50;;
11709;SDS011;5911;51.036;6.972;2024-01-27T13:39:52;9.53;;;4.57;;
11709;SDS011;5911;51.036;6.972;2024-01-27T13:42:22;8.97;;;3.23;;
11709;SDS011;5911;51.036;6.972;2024-01-27T13:44:50;4.27;;;2.40;;
11709;SDS011;5911;51.036;6.972;2024-01-27T13:47:17;8.50;;;3.23;;
11709;SDS011;5911;51.036;6.972;2024-01-27T13:49:45;7.13;;;3.08;;
11709;SDS011;5911;51.036;6.972;2024-01-27T13:52:14;9.25;;;3.50;;
11709;SDS011;5911;51.036;6.972;2024-01-27T13:54:41;6.27;;;2.97;;
11709;SDS011;5911;51.036;6.972;2024-01-27T13:57:09;10.90;;;3.33;;
11709;SDS011;5911;51.036;6.972;2024-01-27T13:59:39;6.87;;;3.17;;
11709;SDS011;5911;51.036;6.972;2024-01-27T14:02:07;6.83;;;3.17;;
11709;SDS011;5911;51.036;6.972;2024-01-27T14:04:35;6.33;;;3.40;;
11709;SDS011;5911;51.036;6.972;2024-01-27T14:07:02;7.90;;;3.17;;
11709;SDS011;5911;51.036;6.972;2024-01-27T14:09:34;6.87;;;2.77;;
11709;SDS011;5911;51.036;6.972;2024-01-27T14:12:02;8.63;;;3.03;;
11709;SDS011;5911;51.036;6.972;2024-01-27T14:14:29;8.23;;;3.40;;
11709;SDS011;5911;51.036;6.972;2024-01-27T14:16:57;8.00;;;3.10;;
11709;SDS011;5911;51.036;6.972;2024-01-27T14:19:25;8.83;;;3.50;;
11709;SDS011;5911;51.036;6.972;2024-01-27T14:21:53;9.98;;;3.80;;
11709;SDS011;5911;51.036;6.972;2024-01-27T14:24:20;6.40;;;3.40;;
11709;SDS011;5911;51.036;6.972;2024-01-27T14:26:49;10.35;;;3.17;;
11709;SDS011;5911;51.036;6.972;2024-01-27T14:29:16;8.50;;;3.33;;
11709;SDS011;5911;51.036;6.972;2024-01-27T14:31:44;8.05;;;3.13;;
11709;SDS011;5911;51.036;6.972;2024-01-27T14:34:12;8.30;;;3.30;;
11709;SDS011;5911;51.036;6.972;2024-01-27T14:36:41;7.50;;;3.17;;
11709;SDS011;5911;51.036;6.972;2024-01-27T14:39:10;7.68;;;3.35;;
11709;SDS011;5911;51.036;6.972;2024-01-27T14:41:37;7.43;;;3.50;;
11709;SDS011;5911;51.036;6.972;2024-01-27T14:44:09;8.70;;;3.47;;
11709;SDS011;5911;51.036;6.972;2024-01-27T14:46:37;8.55;;;3.40;;
11709;SDS011;5911;51.036;6.972;2024-01-27T14:49:06;7.75;;;3.30;;
11709;SDS011;5911;51.036;6.972;2024-01-27T14:51:34;10.60;;;3.90;;
11709;SDS011;5911;51.036;6.972;2024-01-27T14:54:02;8.30;;;3.30;;
11709;SDS011;5911;51.036;6.972;2024-01-27T14:56:30;9.20;;;3.17;;
11709;SDS011;5911;51.036;6.972;2024-01-27T14:58:58;8.97;;;3.73;;
11709;SDS011;5911;51.036;6.972;2024-01-27T15:01:27;7.00;;;3.00;;
11709;SDS011;5911;51.036;6.972;2024-01-27T15:03:55;8.80;;;3.30;;